EPWR/WRO METAR and TAF weather

Enter ICAO airport designator
Station Type Date Time Source
EPWR METAR 2021/10/22 18:30 UTC NOAA

EPWR 221830Z 26015G26KT CAVOK 11/M00 Q1012


Station Type Date Time Source
EPWR Decoded METAR 2021/10/22 18:30 UTC NOAA

Wroclaw Ii, Poland (EPWR) 51-06N 016-53E 121M
Oct 22, 2021 - 02:30 PM EDT / 2021.10.22 1830 UTC
Wind: from the W (260 degrees) at 17 MPH (15 KT) gusting to 30 MPH (26 KT):0
Visibility: greater than 7 mile(s):0
Temperature: 51 F (11 C)
Dew Point: 32 F (0 C)
Relative Humidity: 46%
Pressure (altimeter): 29.88 in. Hg (1012 hPa)
ob: EPWR 221830Z 26015G26KT CAVOK 11/M00 Q1012
cycle: 18

Station Type Date Time Source
EPWR TAF 2021/10/22 18:33 UTC NOAA

TAF TAF EPWR 221730Z 2218/2318 25015G25KT 9999 BKN045
TEMPO 2218/2224 28020G40KT -SHRA BKN020CB
BECMG 2315/2318 27010KT

Example: see airport list